»·PEaware :: N133LW KMYF-L04

N133LW :: KMYF-L04

FLIGHT INFORMATION

Flight Status: Arrived
Operator: Privately registered:
United States
More flights under this callsign
Pilot: Lee W. (44)
Aircraft: BEECH AIRCRAFT BARON
(BE58)
More flights by this aircraft type
Origin: KMYF Montgomery
United States
Destination: L04 Holtville
United States
More flights between these airports :: More routes between these airports
Route: MZB IPL
File this flight plan on PilotEdge
Remarks:
Altitude:
(Current/Filed)
7,000ft
Speed:
(Current/Filed)
192kts
Departed: 28-Jan-13 06:48 PM
Arrived: 28-Jan-13 07:39 PM
Distance/Time
Traveled:
94nm/0:51
Distance/Time
To Go:
Arrived

Flight Plot

Page will automatically refresh every two minutes.


Map Options




Map Legend


Flown Route
Filed Route
Departure Airport
Arrival Airport
Navaid (VOR, NDB)
Fix

Horizontal Profiles

Position Reports

Time Latitude Longitude Heading Altitude Ground
Speed
28-Jan-13 18:29 32.814030 -117.141352 293 430ft 0kts
28-Jan-13 18:30 32.814030 -117.141352 293 430ft 0kts
28-Jan-13 18:31 32.814030 -117.141352 293 430ft 0kts
28-Jan-13 18:32 32.814030 -117.141352 293 430ft 0kts
28-Jan-13 18:33 32.814030 -117.141352 293 430ft 0kts
28-Jan-13 18:34 32.814030 -117.141352 293 430ft 0kts
28-Jan-13 18:35 32.814030 -117.141352 293 430ft 0kts
28-Jan-13 18:36 32.814030 -117.141352 293 430ft 0kts
28-Jan-13 18:37 32.814030 -117.141352 293 430ft 0kts
28-Jan-13 18:38 32.814030 -117.141352 293 430ft 0kts
28-Jan-13 18:39 32.814030 -117.141352 293 430ft 0kts
28-Jan-13 18:40 32.814030 -117.141352 293 430ft 0kts
28-Jan-13 18:41 32.814030 -117.141352 293 430ft 0kts
28-Jan-13 18:42 32.814030 -117.141352 293 430ft 0kts
28-Jan-13 18:43 32.814030 -117.141352 293 430ft 0kts
28-Jan-13 18:44 32.814342 -117.140806 110 430ft 17kts
28-Jan-13 18:45 32.812585 -117.135617 20 430ft 7kts
28-Jan-13 18:46 32.812667 -117.135579 21 430ft 0kts
28-Jan-13 18:47 32.812667 -117.135579 21 430ft 0kts
28-Jan-13 18:48 32.813662 -117.137088 295 430ft 54kts
28-Jan-13 18:49 32.820368 -117.157473 279 693ft 113kts
28-Jan-13 18:50 32.826019 -117.187307 283 835ft 135kts
28-Jan-13 18:51 32.832229 -117.218675 283 1713ft 128kts
28-Jan-13 18:52 32.817344 -117.239385 161 2460ft 142kts
28-Jan-13 18:53 32.804876 -117.211239 103 3075ft 145kts
28-Jan-13 18:54 32.792466 -117.181318 112 3703ft 145kts
28-Jan-13 18:55 32.785101 -117.150521 85 4279ft 143kts
28-Jan-13 18:56 32.786295 -117.114735 86 4880ft 143kts
28-Jan-13 18:57 32.786645 -117.075523 87 5538ft 144kts
28-Jan-13 18:58 32.786439 -117.037172 88 6173ft 144kts
28-Jan-13 18:59 32.786068 -117.006287 89 6710ft 141kts
28-Jan-13 19:00 32.785444 -116.973178 89 7004ft 150kts
28-Jan-13 19:01 32.784736 -116.929726 90 6994ft 151kts
28-Jan-13 19:02 32.782984 -116.889118 102 6989ft 150kts
28-Jan-13 19:03 32.776973 -116.843282 95 6989ft 149kts
28-Jan-13 19:04 32.773977 -116.795703 92 6990ft 149kts
28-Jan-13 19:05 32.772383 -116.748141 91 7000ft 150kts
28-Jan-13 19:06 32.771329 -116.699332 90 6991ft 149kts
28-Jan-13 19:07 32.770557 -116.653894 90 6994ft 150kts
28-Jan-13 19:08 32.770557 -116.653894 90 6994ft 150kts
28-Jan-13 19:11 32.768115 -116.492256 90 6968ft 148kts
28-Jan-13 19:12 32.767375 -116.443819 90 7002ft 149kts
28-Jan-13 19:13 32.766611 -116.394910 90 6981ft 148kts
28-Jan-13 19:14 32.765807 -116.346201 89 6997ft 147kts
28-Jan-13 19:15 32.765028 -116.298858 88 7002ft 146kts
28-Jan-13 19:16 32.764228 -116.250851 88 6975ft 145kts
28-Jan-13 19:17 32.763409 -116.202339 88 6985ft 147kts
28-Jan-13 19:18 32.762570 -116.154247 88 6967ft 144kts
28-Jan-13 19:21 32.760098 -116.018410 88 6965ft 142kts
28-Jan-13 19:22 32.759212 -115.971699 88 6965ft 141kts
28-Jan-13 19:23 32.758305 -115.924875 88 6965ft 142kts
28-Jan-13 19:25 32.756770 -115.879204 90 6965ft 142kts
28-Jan-13 19:26 32.754934 -115.826188 89 5825ft 189kts
28-Jan-13 19:27 32.753579 -115.763161 89 4554ft 192kts
28-Jan-13 19:28 32.752633 -115.704254 89 3946ft 166kts
28-Jan-13 19:29 32.751924 -115.654356 88 3951ft 149kts
28-Jan-13 19:30 32.751244 -115.605766 88 3952ft 145kts
28-Jan-13 19:31 32.750556 -115.557849 88 3951ft 145kts
28-Jan-13 19:32 32.749828 -115.510852 88 3949ft 146kts
28-Jan-13 19:33 32.761202 -115.468159 63 3947ft 144kts
28-Jan-13 19:34 32.776991 -115.423667 63 3796ft 152kts
28-Jan-13 19:35 32.794039 -115.376067 63 3426ft 162kts
28-Jan-13 19:36 32.809846 -115.328282 89 2982ft 170kts
28-Jan-13 19:37 32.801936 -115.288773 112 2137ft 114kts
28-Jan-13 19:38 32.799736 -115.256901 22 765ft 97kts
28-Jan-13 19:39 32.824623 -115.255583 325 443ft 91kts
28-Jan-13 19:40 32.840159 -115.272086 318 62ft 39kts
28-Jan-13 19:41 32.841883 -115.275947 167 62ft 9kts

Navigation Log

Ident Type
Flight plan parsing failed, navigation log unavailable